Terminal Aerodrome Forecast
Issued by NWS North Platte, NE

Home | Current Version | Previous Version | Text Only | Print | Product List | Glossary On
Versions: 1 2 3 4 5 6 7 8 9 10 11 12 13 14 15
000
FTUS43 KLBF 280520
TAFVTN
TAF
KVTN 280520Z 2806/2906 33011KT P6SM -SHRA VCTS BKN100CB
     FM280700 29010KT P6SM BKN250
     FM281500 32012KT P6SM SCT150
     FM290000 04007KT P6SM SCT150=

USA.gov is the U.S. government's official web portal to all federal, state and local government web resources and services.